createdAt,value
2019-01-04T00:00:56.062Z,8.33
2019-01-04T00:03:38.534Z,9.75
2019-01-04T00:06:20.835Z,8.10
2019-01-04T00:09:02.684Z,9.05
2019-01-04T00:11:44.844Z,8.40
2019-01-04T00:14:26.825Z,9.93
2019-01-04T00:17:08.925Z,11.00
2019-01-04T00:19:51.397Z,9.75
2019-01-04T00:22:33.810Z,10.58
2019-01-04T00:25:16.275Z,9.38
2019-01-04T00:27:58.163Z,9.10
2019-01-04T00:30:40.496Z,9.95
2019-01-04T00:33:22.934Z,10.35
2019-01-04T00:36:05.232Z,10.20
2019-01-04T00:38:47.225Z,10.30
2019-01-04T00:41:29.236Z,9.75
2019-01-04T00:44:11.358Z,10.03
2019-01-04T00:46:53.275Z,9.60
2019-01-04T00:49:35.183Z,9.63
2019-01-04T00:52:17.764Z,8.73
2019-01-04T00:54:59.633Z,9.50
2019-01-04T00:57:41.609Z,9.53
2019-01-04T01:00:23.351Z,9.30
2019-01-04T01:03:05.479Z,9.80
2019-01-04T01:05:48.083Z,9.75
2019-01-04T01:08:30.003Z,10.18
2019-01-04T01:11:12.290Z,10.35
2019-01-04T01:13:54.576Z,9.28
2019-01-04T01:16:36.859Z,9.85
2019-01-04T01:22:56.914Z,8.50
2019-01-04T01:26:05.525Z,8.43
2019-01-04T01:29:14.183Z,9.00
2019-01-04T01:32:23.065Z,7.90
2019-01-04T01:35:31.874Z,9.00
2019-01-04T01:38:40.610Z,8.10
2019-01-04T01:41:49.268Z,8.75
2019-01-04T01:44:58.020Z,7.47
2019-01-04T01:47:52.115Z,8.00
2019-01-04T01:50:34.151Z,7.97
2019-01-04T01:53:16.432Z,8.13
2019-01-04T01:55:58.211Z,7.55
2019-01-04T01:58:40.257Z,7.50
2019-01-04T02:01:22.240Z,7.08
2019-01-04T02:04:04.578Z,6.17
2019-01-04T02:06:46.709Z,6.70
2019-01-04T02:09:27.365Z,7.25
2019-01-04T02:18:26.163Z,7.87
2019-01-04T02:21:08.799Z,6.95
2019-01-04T02:23:50.940Z,7.10
2019-01-04T02:26:31.653Z,6.85
2019-01-04T02:29:21.463Z,7.67
2019-01-04T02:32:11.331Z,6.70
2019-01-04T02:35:01.037Z,6.87
2019-01-04T02:37:50.740Z,6.40
2019-01-04T02:40:59.883Z,6.90
2019-01-04T02:44:08.996Z,6.12
2019-01-04T02:50:27.062Z,6.90
2019-01-04T02:53:36.614Z,7.33
2019-01-04T02:59:35.637Z,7.08
2019-01-04T03:09:02.020Z,6.65
2019-01-04T03:21:42.135Z,6.53
2019-01-04T03:24:43.762Z,7.33
2019-01-04T03:27:26.010Z,7.85
2019-01-04T03:30:08.013Z,6.62
2019-01-04T03:32:49.760Z,6.80
2019-01-04T03:35:32.165Z,8.00
2019-01-04T03:38:14.584Z,7.40
2019-01-04T03:40:57.319Z,8.20
2019-01-04T03:43:39.330Z,6.95
2019-01-04T03:46:21.094Z,7.12
2019-01-04T03:49:02.955Z,7.67
2019-01-04T03:51:45.095Z,7.90
2019-01-04T03:54:27.436Z,7.37
2019-01-04T03:57:09.500Z,8.10
2019-01-04T03:59:51.759Z,8.05
2019-01-04T04:02:34.565Z,7.22
2019-01-04T04:05:16.785Z,6.67
2019-01-04T04:07:59.190Z,7.22
2019-01-04T04:10:41.817Z,8.23
2019-01-04T04:13:23.770Z,7.22
2019-01-04T04:16:05.549Z,7.75
2019-01-04T04:18:47.360Z,7.42
2019-01-04T04:21:29.265Z,8.55
2019-01-04T04:24:11.895Z,8.18
2019-01-04T04:26:54.087Z,8.55
2019-01-04T04:29:36.070Z,7.92
2019-01-04T04:32:18.747Z,7.95
2019-01-04T04:35:00.665Z,7.75
2019-01-04T04:37:43.389Z,8.20
2019-01-04T04:40:25.636Z,8.60
2019-01-04T04:43:07.913Z,8.40
2019-01-04T04:45:50.330Z,8.10
2019-01-04T04:48:32.319Z,9.13
2019-01-04T04:51:14.324Z,7.60
2019-01-04T04:53:56.235Z,9.70
2019-01-04T04:56:38.465Z,8.15
2019-01-04T04:59:20.346Z,8.68
2019-01-04T05:02:02.582Z,9.38
2019-01-04T05:04:44.534Z,8.58
2019-01-04T05:07:26.794Z,7.83
2019-01-04T05:10:08.904Z,8.73
2019-01-04T05:12:51.139Z,8.70
2019-01-04T05:15:33.670Z,8.30
2019-01-04T05:18:16.220Z,8.65
2019-01-04T05:20:58.490Z,8.90
2019-01-04T05:23:41.154Z,7.95
2019-01-04T05:26:23.586Z,8.15
2019-01-04T05:29:05.537Z,7.78
2019-01-04T05:31:47.281Z,7.87
2019-01-04T05:34:29.411Z,8.20
2019-01-04T05:37:11.418Z,8.50
2019-01-04T05:39:53.180Z,8.30
2019-01-04T05:42:35.295Z,8.20
2019-01-04T05:45:17.323Z,9.03
2019-01-04T05:47:59.601Z,8.60
2019-01-04T05:50:42.003Z,8.65
2019-01-04T05:53:24.749Z,9.20
2019-01-04T05:56:07.121Z,9.00
2019-01-04T05:58:49.383Z,9.23
2019-01-04T06:01:31.957Z,8.78
2019-01-04T06:04:14.141Z,9.15
2019-01-04T06:06:56.418Z,9.40
2019-01-04T06:09:39.022Z,8.95
2019-01-04T06:12:21.329Z,8.90
2019-01-04T06:15:03.674Z,9.00
2019-01-04T06:17:45.699Z,8.75
2019-01-04T06:20:28.173Z,9.30
2019-01-04T06:23:10.535Z,8.93
2019-01-04T06:25:52.293Z,8.68
2019-01-04T06:28:34.617Z,8.43
2019-01-04T06:31:16.515Z,9.08
2019-01-04T06:33:58.958Z,9.88
2019-01-04T06:36:40.705Z,8.00
2019-01-04T06:39:23.363Z,8.63
2019-01-04T06:42:05.412Z,9.90
2019-01-04T06:44:47.456Z,10.53
2019-01-04T06:47:29.593Z,9.40
2019-01-04T06:50:11.783Z,9.90
2019-01-04T06:52:54.194Z,10.10
2019-01-04T06:55:36.919Z,11.10
2019-01-04T06:58:19.268Z,10.95
2019-01-04T07:01:01.613Z,8.95
2019-01-04T07:03:43.825Z,10.03
2019-01-04T07:06:25.985Z,9.95
2019-01-04T07:09:08.068Z,10.88
2019-01-04T07:11:50.633Z,10.20
2019-01-04T07:14:33.089Z,9.15
2019-01-04T07:17:14.829Z,8.58
2019-01-04T07:19:57.495Z,9.90
2019-01-04T07:22:39.580Z,8.83
2019-01-04T07:25:22.247Z,10.00
2019-01-04T07:28:04.760Z,9.93
2019-01-04T07:30:47.263Z,8.90
2019-01-04T07:33:29.807Z,9.93
2019-01-04T07:36:11.743Z,9.33
2019-01-04T07:38:53.603Z,9.75
2019-01-04T07:41:36.309Z,9.53
2019-01-04T07:44:18.369Z,10.05
2019-01-04T07:47:00.161Z,9.48
2019-01-04T07:49:41.944Z,8.53
2019-01-04T07:52:23.880Z,10.05
2019-01-04T07:55:05.817Z,10.50
2019-01-04T07:57:51.368Z,10.03
2019-01-04T08:00:36.424Z,10.23
2019-01-04T08:03:20.582Z,9.88
2019-01-04T08:06:02.544Z,10.58
2019-01-04T08:08:44.478Z,9.95
2019-01-04T08:11:26.653Z,10.45
2019-01-04T08:14:09.443Z,11.73
2019-01-04T08:16:51.539Z,9.50
2019-01-04T08:19:34.450Z,11.28
2019-01-04T08:22:16.593Z,10.40
2019-01-04T08:24:58.566Z,10.60
2019-01-04T08:27:40.270Z,10.63
2019-01-04T08:30:22.850Z,11.10
2019-01-04T08:33:05.013Z,11.57
2019-01-04T08:35:47.380Z,11.70
2019-01-04T08:38:29.340Z,11.20
2019-01-04T08:41:12.350Z,10.78
2019-01-04T08:43:54.697Z,12.23
2019-01-04T08:46:37.009Z,11.38
2019-01-04T08:49:19.014Z,11.22
2019-01-04T08:52:01.157Z,11.15
2019-01-04T08:54:43.318Z,10.75
2019-01-04T08:57:25.347Z,11.05
2019-01-04T09:00:08.125Z,10.90
2019-01-04T09:02:50.607Z,10.88
2019-01-04T09:05:33.017Z,10.05
2019-01-04T09:08:15.331Z,10.18
2019-01-04T09:10:57.378Z,10.90
2019-01-04T09:13:40.131Z,11.12
2019-01-04T09:16:22.744Z,10.18
2019-01-04T09:19:04.846Z,11.38
2019-01-04T09:21:47.004Z,10.68
2019-01-04T09:24:28.920Z,11.08
2019-01-04T09:27:11.407Z,11.73
2019-01-04T09:29:53.543Z,11.70
2019-01-04T09:32:35.541Z,11.83
2019-01-04T09:35:18.003Z,11.77
2019-01-04T09:37:59.810Z,13.38
2019-01-04T09:40:41.864Z,13.05
2019-01-04T09:43:24.023Z,13.30
2019-01-04T09:46:06.138Z,12.85
2019-01-04T09:48:48.647Z,12.70
2019-01-04T09:51:30.598Z,11.80
2019-01-04T09:54:13.217Z,12.35
2019-01-04T09:56:55.344Z,13.75
2019-01-04T09:59:38.070Z,12.60
2019-01-04T10:02:20.453Z,15.45
2019-01-04T10:05:02.422Z,14.15
2019-01-04T10:07:44.344Z,12.93
2019-01-04T10:10:26.053Z,11.73
2019-01-04T10:13:07.963Z,11.75
2019-01-04T10:15:50.522Z,10.90
2019-01-04T10:18:32.842Z,12.00
2019-01-04T10:21:15.069Z,12.20
2019-01-04T10:23:57.705Z,11.30
2019-01-04T10:26:40.555Z,10.18
2019-01-04T10:29:23.416Z,10.70
2019-01-04T10:32:05.584Z,10.82
2019-01-04T10:34:47.821Z,11.03
2019-01-04T10:37:30.677Z,12.58
2019-01-04T10:40:12.635Z,10.60
2019-01-04T10:42:55.364Z,12.40
2019-01-04T10:45:37.375Z,11.08
2019-01-04T10:48:19.463Z,10.15
2019-01-04T10:51:01.562Z,10.32
2019-01-04T10:53:44.215Z,11.30
2019-01-04T10:56:26.672Z,11.22
2019-01-04T10:59:08.765Z,11.40
2019-01-04T11:01:51.067Z,12.05
2019-01-04T11:04:33.518Z,12.93
2019-01-04T11:07:15.906Z,12.90
2019-01-04T11:09:58.029Z,12.70
2019-01-04T11:12:39.994Z,11.25
2019-01-04T11:15:22.257Z,11.93
2019-01-04T11:18:09.868Z,11.00
2019-01-04T11:20:49.715Z,10.53
2019-01-04T11:23:32.243Z,10.60
2019-01-04T11:26:14.138Z,11.53
2019-01-04T11:28:55.936Z,11.28
2019-01-04T11:31:38.505Z,10.60
2019-01-04T11:34:20.995Z,11.23
2019-01-04T11:41:03.296Z,12.00
2019-01-04T11:44:31.395Z,10.90
2019-01-04T11:51:12.730Z,10.00
2019-01-04T12:00:31.545Z,11.20
2019-01-04T12:06:49.496Z,11.45
2019-01-04T12:13:28.247Z,11.03
2019-01-04T12:16:17.856Z,11.63
2019-01-04T12:19:26.887Z,9.63
2019-01-04T12:25:44.537Z,10.85
2019-01-04T12:28:26.296Z,11.43
2019-01-04T12:31:09.006Z,11.90
2019-01-04T12:33:51.027Z,14.40
2019-01-04T12:36:33.408Z,13.98
2019-01-04T12:39:16.413Z,14.10
2019-01-04T12:41:58.349Z,11.40
2019-01-04T12:44:41.177Z,11.00
2019-01-04T12:47:23.534Z,10.85
2019-01-04T12:50:05.425Z,9.95
2019-01-04T12:52:47.481Z,10.80
2019-01-04T12:55:29.424Z,9.60
2019-01-04T12:58:11.993Z,10.13
2019-01-04T13:00:54.373Z,10.93
2019-01-04T13:03:36.509Z,9.40
2019-01-04T13:06:18.721Z,10.43
2019-01-04T13:09:01.303Z,10.37
2019-01-04T13:11:43.466Z,10.28
2019-01-04T13:14:25.821Z,10.60
2019-01-04T13:17:08.165Z,9.78
2019-01-04T13:19:50.448Z,9.70
2019-01-04T13:22:32.398Z,10.70
2019-01-04T13:25:15.025Z,9.60
2019-01-04T13:27:57.086Z,10.77
2019-01-04T13:30:39.749Z,9.23
2019-01-04T13:33:22.853Z,10.00
2019-01-04T13:36:04.604Z,10.70
2019-01-04T13:38:46.856Z,9.25
2019-01-04T13:41:28.861Z,10.05
2019-01-04T13:44:11.446Z,9.63
2019-01-04T13:46:53.799Z,9.40
2019-01-04T13:49:35.993Z,10.32
2019-01-04T13:52:17.648Z,9.53
2019-01-04T13:54:59.749Z,9.73
2019-01-04T13:57:41.925Z,10.25
2019-01-04T14:00:23.969Z,10.98
2019-01-04T14:03:05.989Z,10.25
2019-01-04T14:05:48.905Z,10.53
2019-01-04T14:08:30.784Z,9.90
2019-01-04T14:11:13.376Z,9.90
2019-01-04T14:13:55.905Z,9.50
2019-01-04T14:16:38.296Z,10.40
2019-01-04T14:19:20.517Z,9.85
2019-01-04T14:22:02.313Z,9.95
2019-01-04T14:24:44.614Z,9.78
2019-01-04T14:27:26.779Z,9.77
2019-01-04T14:30:08.836Z,11.00
2019-01-04T14:32:51.570Z,10.10
2019-01-04T14:35:34.387Z,9.30
2019-01-04T14:38:17.139Z,9.90
2019-01-04T14:40:59.446Z,9.70
2019-01-04T14:43:42.408Z,9.30
2019-01-04T14:46:25.311Z,9.83
2019-01-04T14:49:08.726Z,8.95
2019-01-04T14:51:51.168Z,9.53
2019-01-04T14:54:33.671Z,9.58
2019-01-04T14:57:16.033Z,9.38
2019-01-04T14:59:58.461Z,12.03
2019-01-04T15:02:40.843Z,11.30
2019-01-04T15:05:22.915Z,11.80
2019-01-04T15:08:06.525Z,11.53
2019-01-04T15:10:48.564Z,11.45
2019-01-04T15:13:30.823Z,11.30
2019-01-04T15:16:12.923Z,12.60
2019-01-04T15:18:54.875Z,12.63
2019-01-04T15:21:36.684Z,12.82
2019-01-04T15:24:19.187Z,12.10
2019-01-04T15:27:01.473Z,10.50
2019-01-04T15:29:43.810Z,9.33
2019-01-04T15:32:25.678Z,9.65
2019-01-04T15:35:08.302Z,10.20
2019-01-04T15:37:50.778Z,10.03
2019-01-04T15:40:33.555Z,10.70
2019-01-04T15:43:15.394Z,11.25
2019-01-04T15:45:57.633Z,11.60
2019-01-04T15:48:39.740Z,9.43
2019-01-04T15:51:22.132Z,9.60
2019-01-04T15:54:03.914Z,8.78
2019-01-04T15:56:46.533Z,8.68
2019-01-04T15:59:29.085Z,8.48
2019-01-04T16:02:11.648Z,8.73
2019-01-04T16:04:53.473Z,7.83
2019-01-04T16:07:35.803Z,9.40
2019-01-04T16:10:18.019Z,10.03
2019-01-04T16:13:00.260Z,8.78
2019-01-04T16:15:42.367Z,8.85
2019-01-04T16:18:24.277Z,8.55
2019-01-04T16:21:06.300Z,7.62
2019-01-04T16:23:48.661Z,7.85
2019-01-04T16:26:31.368Z,9.03
2019-01-04T16:29:13.761Z,9.55
2019-01-04T16:31:55.648Z,9.33
2019-01-04T16:34:37.864Z,9.20
2019-01-04T16:37:19.898Z,8.03
2019-01-04T16:40:02.178Z,8.48
2019-01-04T16:42:44.482Z,7.40
2019-01-04T16:45:26.739Z,7.40
2019-01-04T16:48:09.257Z,8.20
2019-01-04T16:50:51.681Z,7.78
2019-01-04T16:53:33.615Z,7.75
2019-01-04T16:56:17.059Z,8.73
2019-01-04T16:58:59.187Z,7.92
2019-01-04T17:01:41.948Z,9.00
2019-01-04T17:04:24.153Z,8.18
2019-01-04T17:07:06.240Z,9.38
2019-01-04T17:09:49.261Z,8.80
2019-01-04T17:12:31.709Z,8.05
2019-01-04T17:15:14.527Z,11.33
2019-01-04T17:17:56.401Z,10.23
2019-01-04T17:20:38.707Z,11.97
2019-01-04T17:23:21.439Z,13.45
2019-01-04T17:26:04.046Z,12.43
2019-01-04T17:28:46.449Z,10.78
2019-01-04T17:31:29.049Z,10.82
2019-01-04T17:34:11.021Z,12.85
2019-01-04T17:36:53.757Z,10.13
2019-01-04T17:39:36.569Z,9.80
2019-01-04T17:42:19.052Z,8.28
2019-01-04T17:45:01.294Z,7.95
2019-01-04T17:47:43.391Z,7.30
2019-01-04T17:50:25.957Z,8.13
2019-01-04T17:53:08.334Z,7.60
2019-01-04T17:55:50.741Z,7.60
2019-01-04T17:58:33.128Z,7.70
2019-01-04T18:01:15.225Z,10.03
2019-01-04T18:03:57.719Z,9.18
2019-01-04T18:06:39.757Z,10.90
2019-01-04T18:09:21.951Z,9.75
2019-01-04T18:12:04.403Z,8.20
2019-01-04T18:14:47.214Z,8.68
2019-01-04T18:17:29.546Z,9.15
2019-01-04T18:20:13.984Z,9.68
2019-01-04T18:22:55.411Z,10.05
2019-01-04T18:25:37.649Z,9.40
2019-01-04T18:28:19.779Z,10.45
2019-01-04T18:31:02.257Z,8.80
2019-01-04T18:33:44.289Z,8.63
2019-01-04T18:36:26.407Z,7.60
2019-01-04T18:39:08.553Z,8.20
2019-01-04T18:41:50.347Z,8.40
2019-01-04T18:44:32.893Z,7.87
2019-01-04T18:47:15.557Z,9.28
2019-01-04T18:49:57.806Z,8.48
2019-01-04T18:52:40.368Z,8.43
2019-01-04T18:55:22.493Z,7.75
2019-01-04T18:58:04.913Z,7.90
2019-01-04T19:00:46.799Z,10.10
2019-01-04T19:03:29.316Z,8.95
2019-01-04T19:06:11.508Z,8.80
2019-01-04T19:08:53.578Z,8.48
2019-01-04T19:11:35.804Z,8.88
2019-01-04T19:14:17.569Z,8.88
2019-01-04T19:16:59.745Z,9.70
2019-01-04T19:19:41.531Z,9.65
2019-01-04T19:22:23.532Z,11.12
2019-01-04T19:25:05.296Z,10.23
2019-01-04T19:27:47.408Z,10.38
2019-01-04T19:30:29.906Z,10.28
2019-01-04T19:33:12.296Z,10.40
2019-01-04T19:35:54.567Z,11.15
2019-01-04T19:38:37.105Z,9.95
2019-01-04T19:41:19.143Z,10.85
2019-01-04T19:44:01.322Z,12.10
2019-01-04T19:46:44.020Z,11.63
2019-01-04T19:49:26.416Z,11.00
2019-01-04T19:52:08.912Z,10.40
2019-01-04T19:54:50.833Z,10.53
2019-01-04T19:57:33.738Z,9.63
2019-01-04T20:00:16.257Z,9.25
2019-01-04T20:02:58.107Z,10.23
2019-01-04T20:09:15.523Z,9.83
2019-01-04T20:12:17.463Z,9.98
2019-01-04T20:18:21.412Z,9.70
2019-01-04T20:21:47.703Z,10.00
2019-01-04T20:25:09.062Z,9.63
2019-01-04T20:28:09.922Z,8.60
2019-01-04T20:31:12.374Z,9.63
2019-01-04T20:34:15.022Z,8.23
2019-01-04T20:37:36.786Z,8.10
2019-01-04T20:43:42.148Z,8.23
2019-01-04T20:49:29.042Z,8.50
2019-01-04T20:52:31.041Z,7.25
2019-01-04T20:55:32.333Z,8.08
2019-01-04T20:58:58.233Z,7.67
2019-01-04T21:05:18.109Z,8.73
2019-01-04T21:08:21.851Z,8.78
2019-01-04T21:11:20.419Z,8.85
2019-01-04T21:14:42.527Z,8.48
2019-01-04T21:20:52.340Z,8.75
2019-01-04T21:23:53.299Z,8.28
2019-01-04T21:26:54.250Z,8.58
2019-01-04T21:29:55.344Z,8.05
2019-01-04T21:32:59.577Z,7.87
2019-01-04T21:36:20.467Z,9.68
2019-01-04T21:39:22.807Z,8.28
2019-01-04T21:42:23.748Z,8.90
2019-01-04T21:45:32.276Z,9.20
2019-01-04T21:49:00.211Z,8.70
2019-01-04T21:52:08.689Z,10.70
2019-01-04T21:55:17.193Z,8.75
2019-01-04T21:58:22.015Z,9.33
2019-01-04T22:01:26.096Z,9.73
2019-01-04T22:04:46.349Z,9.73
2019-01-04T22:07:47.070Z,9.10
2019-01-04T22:11:07.765Z,9.90
2019-01-04T22:14:31.437Z,11.25
2019-01-04T22:17:52.021Z,9.95
2019-01-04T22:20:58.761Z,11.22
2019-01-04T22:24:25.533Z,12.00
2019-01-04T22:27:46.097Z,11.08
2019-01-04T22:30:46.847Z,10.32
2019-01-04T22:33:50.656Z,10.32
2019-01-04T22:37:14.176Z,11.03
2019-01-04T22:40:37.121Z,12.30
2019-01-04T22:43:57.713Z,11.93
2019-01-04T22:47:17.774Z,11.93
2019-01-04T22:50:40.857Z,12.60
2019-01-04T22:53:41.877Z,11.85
2019-01-04T22:56:43.075Z,12.88
2019-01-04T22:59:43.728Z,12.45
2019-01-04T23:02:44.937Z,13.48
2019-01-04T23:05:46.187Z,13.55
2019-01-04T23:09:06.445Z,13.78
2019-01-04T23:12:07.706Z,13.58
2019-01-04T23:15:28.327Z,13.75
2019-01-04T23:18:52.400Z,12.30
2019-01-04T23:22:13.516Z,13.25
2019-01-04T23:25:17.593Z,13.83
2019-01-04T23:31:42.781Z,13.80
2019-01-04T23:34:44.268Z,14.38
2019-01-04T23:37:45.447Z,13.22
2019-01-04T23:40:52.530Z,13.65
2019-01-04T23:44:08.585Z,12.85
2019-01-04T23:47:32.477Z,13.10
2019-01-04T23:50:53.697Z,12.75
2019-01-04T23:56:59.115Z,11.10
